createdAt,value
2023-03-11T00:01:21.354Z,6.24
2023-03-11T00:06:24.652Z,6.26
2023-03-11T00:11:27.608Z,6.30
2023-03-11T00:16:30.548Z,6.34
2023-03-11T00:21:33.800Z,6.39
2023-03-11T00:26:36.964Z,6.44
2023-03-11T00:31:39.912Z,6.47
2023-03-11T00:36:42.891Z,6.49
2023-03-11T00:41:45.837Z,6.48
2023-03-11T00:46:48.723Z,6.43
2023-03-11T00:51:51.614Z,6.37
2023-03-11T00:56:54.475Z,6.30
2023-03-11T01:01:57.323Z,6.26
2023-03-11T01:07:00.210Z,6.23
2023-03-11T01:12:03.212Z,6.17
2023-03-11T01:17:06.203Z,6.11
2023-03-11T01:22:10.223Z,6.05
2023-03-11T01:27:13.045Z,5.99
2023-03-11T01:32:16.039Z,5.95
2023-03-11T01:37:20.234Z,5.90
2023-03-11T01:42:23.160Z,5.88
2023-03-11T01:47:36.004Z,5.83
2023-03-11T01:52:38.859Z,5.79
2023-03-11T01:57:42.796Z,5.73
2023-03-11T02:02:52.776Z,5.68
2023-03-11T02:07:55.784Z,5.64
2023-03-11T02:12:58.851Z,5.63
2023-03-11T02:18:03.661Z,5.63
2023-03-11T02:23:06.711Z,5.60
2023-03-11T02:28:12.286Z,5.53
2023-03-11T02:33:15.357Z,5.52
2023-03-11T02:38:18.661Z,5.49
2023-03-11T02:43:35.044Z,5.47
2023-03-11T02:48:38.008Z,5.43
2023-03-11T02:53:48.191Z,5.37
2023-03-11T02:58:51.214Z,5.31
2023-03-11T03:03:54.197Z,5.24
2023-03-11T03:08:57.149Z,5.16
2023-03-11T03:14:00.231Z,5.09
2023-03-11T03:19:03.196Z,5.01
2023-03-11T03:24:06.410Z,4.93
2023-03-11T03:29:09.356Z,4.83
2023-03-11T03:34:12.167Z,4.74
2023-03-11T03:39:15.137Z,4.64
2023-03-11T03:44:18.391Z,4.56
2023-03-11T03:49:21.339Z,4.49
2023-03-11T03:54:24.389Z,4.42
2023-03-11T03:59:27.243Z,4.40
2023-03-11T04:04:30.643Z,4.41
2023-03-11T04:09:34.778Z,4.43
2023-03-11T04:14:38.116Z,4.46
2023-03-11T04:19:41.290Z,4.46
2023-03-11T04:24:44.251Z,4.48
2023-03-11T04:29:47.056Z,4.50
2023-03-11T04:34:50.862Z,4.54
2023-03-11T04:39:53.724Z,4.57
2023-03-11T04:44:57.038Z,4.61
2023-03-11T04:49:59.958Z,4.64
2023-03-11T04:55:02.857Z,4.65
2023-03-11T05:00:12.166Z,4.67
2023-03-11T05:05:15.068Z,4.70
2023-03-11T05:10:22.510Z,4.74
2023-03-11T05:15:25.696Z,4.78
2023-03-11T05:20:28.565Z,4.81
2023-03-11T05:25:31.544Z,4.84
2023-03-11T05:30:34.442Z,4.89
2023-03-11T05:35:37.464Z,4.94
2023-03-11T05:40:40.371Z,5.02
2023-03-11T05:45:43.366Z,5.09
2023-03-11T05:50:46.313Z,5.15
2023-03-11T05:55:59.590Z,5.23
2023-03-11T06:01:04.450Z,5.30
2023-03-11T06:06:09.601Z,5.41
2023-03-11T06:11:12.453Z,5.49
2023-03-11T06:16:15.391Z,5.57
2023-03-11T06:21:21.166Z,5.66
2023-03-11T06:26:24.182Z,5.76
2023-03-11T06:31:28.624Z,5.85
2023-03-11T06:36:31.548Z,5.96
2023-03-11T06:41:35.068Z,6.11
2023-03-11T06:46:38.075Z,6.32
2023-03-11T06:51:41.614Z,6.52
2023-03-11T06:56:44.648Z,6.69
2023-03-11T07:01:47.728Z,6.88
2023-03-11T07:06:50.541Z,7.11
2023-03-11T07:11:53.376Z,7.36
2023-03-11T07:16:56.448Z,7.56
2023-03-11T07:21:59.500Z,7.73
2023-03-11T07:27:02.357Z,7.79
2023-03-11T07:32:07.707Z,7.75
2023-03-11T07:37:10.926Z,7.74
2023-03-11T07:42:14.020Z,7.70
2023-03-11T07:47:17.111Z,7.71
2023-03-11T07:52:20.232Z,7.75
2023-03-11T07:57:23.301Z,7.72
2023-03-11T08:02:26.276Z,7.64
2023-03-11T08:07:32.504Z,7.57
2023-03-11T08:12:35.461Z,7.54
2023-03-11T08:17:38.426Z,7.52
2023-03-11T08:22:55.693Z,7.43
2023-03-11T08:28:00.398Z,7.41
2023-03-11T08:33:03.482Z,7.37
2023-03-11T08:38:06.320Z,7.39
2023-03-11T08:43:13.696Z,7.34
2023-03-11T08:48:17.094Z,7.34
2023-03-11T08:53:20.205Z,7.32
2023-03-11T08:58:23.194Z,7.25
2023-03-11T09:03:26.174Z,7.12
2023-03-11T09:08:29.420Z,7.01
2023-03-11T09:13:33.583Z,6.96
2023-03-11T09:18:36.914Z,6.85
2023-03-11T09:23:41.664Z,6.75
2023-03-11T09:28:49.454Z,6.65
2023-03-11T09:33:52.912Z,6.62
2023-03-11T09:38:55.946Z,6.55
2023-03-11T09:44:30.194Z,6.53
2023-03-11T09:50:16.641Z,6.53
2023-03-11T09:55:47.151Z,6.46
2023-03-11T10:00:52.290Z,6.40
2023-03-11T10:06:13.070Z,6.21
2023-03-11T10:12:09.016Z,5.36
2023-03-11T10:17:48.923Z,4.76
2023-03-11T10:23:22.159Z,4.41
2023-03-11T10:28:37.561Z,3.94
2023-03-11T10:33:52.467Z,3.62
2023-03-11T10:38:56.628Z,3.45
2023-03-11T10:44:21.255Z,3.25
2023-03-11T10:49:24.678Z,2.98
2023-03-11T10:54:46.028Z,2.81
2023-03-11T10:59:52.049Z,2.64
2023-03-11T11:05:23.075Z,2.41
2023-03-11T11:10:27.963Z,2.14
2023-03-11T11:15:42.897Z,2.12
2023-03-11T11:21:16.354Z,1.99
2023-03-11T11:26:25.938Z,1.85
2023-03-11T11:31:28.776Z,1.63
2023-03-11T11:36:36.164Z,1.58
2023-03-11T11:41:39.604Z,1.47
2023-03-11T11:46:51.827Z,1.43
2023-03-11T11:52:11.740Z,1.43
2023-03-11T11:57:20.383Z,1.27
2023-03-11T12:02:43.731Z,1.20
2023-03-11T12:08:19.416Z,1.26
2023-03-11T12:14:04.460Z,1.27
2023-03-11T12:19:17.134Z,1.14
2023-03-11T12:25:01.983Z,1.06
2023-03-11T12:30:36.990Z,1.09
2023-03-11T12:35:40.054Z,1.01
2023-03-11T12:40:50.320Z,1.08
2023-03-11T12:45:55.660Z,1.05
2023-03-11T12:50:59.053Z,0.90
2023-03-11T12:56:21.160Z,0.60
2023-03-11T13:02:12.053Z,0.47
2023-03-11T13:07:43.627Z,0.55
2023-03-11T13:12:50.811Z,0.39
2023-03-11T13:18:01.587Z,0.25
2023-03-11T13:23:38.460Z,0.31
2023-03-11T13:29:19.052Z,0.34
2023-03-11T13:35:28.987Z,0.35
2023-03-11T13:40:43.688Z,0.24
2023-03-11T13:46:00.822Z,0.15
2023-03-11T13:51:12.207Z,0.08
2023-03-11T13:56:25.941Z,-0.03
2023-03-11T14:01:28.844Z,-0.11
2023-03-11T14:06:31.745Z,-0.15
2023-03-11T14:11:34.709Z,-0.14
2023-03-11T14:16:44.226Z,-0.18
2023-03-11T14:21:50.610Z,-0.17
2023-03-11T14:26:57.085Z,-0.15
2023-03-11T14:32:00.033Z,-0.10
2023-03-11T14:37:04.940Z,-0.04
2023-03-11T14:42:38.394Z,0.03
2023-03-11T14:47:48.916Z,0.06
2023-03-11T14:53:19.842Z,0.09
2023-03-11T14:59:11.532Z,0.14
2023-03-11T15:04:32.991Z,0.12
2023-03-11T15:09:40.241Z,0.20
2023-03-11T15:14:50.584Z,0.24
2023-03-11T15:19:53.437Z,0.25
2023-03-11T15:24:59.027Z,0.25
2023-03-11T15:30:04.939Z,0.23
2023-03-11T15:35:08.143Z,0.27
2023-03-11T15:40:44.139Z,0.33
2023-03-11T15:45:49.132Z,0.33
2023-03-11T15:51:01.530Z,0.35
2023-03-11T15:56:12.435Z,0.37
2023-03-11T16:01:15.381Z,0.39
2023-03-11T16:06:18.323Z,0.37
2023-03-11T16:11:21.260Z,0.30
2023-03-11T16:16:24.161Z,0.29
2023-03-11T16:21:34.793Z,0.31
2023-03-11T16:26:37.867Z,0.31
2023-03-11T16:31:41.535Z,0.30
2023-03-11T16:36:44.437Z,0.29
2023-03-11T16:41:47.519Z,0.28
2023-03-11T16:46:50.504Z,0.27
2023-03-11T16:51:53.366Z,0.27
2023-03-11T16:56:56.200Z,0.24
2023-03-11T17:01:59.549Z,0.20
2023-03-11T17:07:02.582Z,0.16
2023-03-11T17:12:06.446Z,0.09
2023-03-11T17:17:10.782Z,0.10
2023-03-11T17:22:13.998Z,0.04
2023-03-11T17:27:16.850Z,0.02
2023-03-11T17:32:21.615Z,-0.02
2023-03-11T17:37:24.770Z,-0.03
2023-03-11T17:42:29.202Z,-0.04
2023-03-11T17:47:33.036Z,-0.06
2023-03-11T17:52:36.072Z,-0.04
2023-03-11T17:57:45.610Z,-0.04
2023-03-11T18:02:51.414Z,-0.03
2023-03-11T18:07:54.633Z,-0.02
2023-03-11T18:12:57.548Z,-0.05
2023-03-11T18:18:00.567Z,-0.03
2023-03-11T18:23:03.894Z,-0.06
2023-03-11T18:28:06.748Z,-0.10
2023-03-11T18:33:09.675Z,-0.20
2023-03-11T18:38:12.571Z,-0.24
2023-03-11T18:43:15.649Z,-0.29
2023-03-11T18:48:19.117Z,-0.29
2023-03-11T18:53:24.935Z,-0.33
2023-03-11T18:58:28.376Z,-0.37
2023-03-11T19:03:31.257Z,-0.40
2023-03-11T19:08:34.105Z,-0.42
2023-03-11T19:13:46.565Z,-0.43
2023-03-11T19:18:51.406Z,-0.47
2023-03-11T19:23:55.383Z,-0.49
2023-03-11T19:28:58.339Z,-0.53
2023-03-11T19:34:02.203Z,-0.59
2023-03-11T19:39:05.060Z,-0.61
2023-03-11T19:44:08.192Z,-0.67
2023-03-11T19:49:11.210Z,-0.68
2023-03-11T19:54:16.322Z,-0.65
2023-03-11T19:59:19.578Z,-0.69
2023-03-11T20:04:22.783Z,-0.72
2023-03-11T20:09:25.762Z,-0.76
2023-03-11T20:14:28.724Z,-0.77
2023-03-11T20:19:31.616Z,-0.81
2023-03-11T20:24:34.761Z,-0.85
2023-03-11T20:29:38.015Z,-0.88
2023-03-11T20:34:40.931Z,-0.91
2023-03-11T20:39:43.982Z,-0.94
2023-03-11T20:44:51.587Z,-0.95
2023-03-11T20:49:56.875Z,-0.95
2023-03-11T20:55:00.064Z,-0.96
2023-03-11T21:00:08.225Z,-1.01
2023-03-11T21:05:11.672Z,-1.06
2023-03-11T21:10:14.768Z,-1.06
2023-03-11T21:15:18.005Z,-1.04
2023-03-11T21:20:21.220Z,-0.99
2023-03-11T21:25:25.382Z,-0.89
2023-03-11T21:30:28.401Z,-0.86
2023-03-11T21:35:31.356Z,-0.82
2023-03-11T21:40:34.650Z,-0.78
2023-03-11T21:45:37.569Z,-0.77
2023-03-11T21:50:41.025Z,-0.77
2023-03-11T21:55:44.232Z,-0.81
2023-03-11T22:00:47.379Z,-0.86
2023-03-11T22:05:59.471Z,-0.90
2023-03-11T22:11:03.581Z,-0.92
2023-03-11T22:16:07.343Z,-0.91
2023-03-11T22:21:11.030Z,-0.91
2023-03-11T22:26:14.785Z,-0.91
2023-03-11T22:31:19.006Z,-0.89
2023-03-11T22:36:22.100Z,-0.89
2023-03-11T22:41:25.139Z,-0.89
2023-03-11T22:46:28.590Z,-0.88
2023-03-11T22:51:31.487Z,-0.87
2023-03-11T22:56:34.472Z,-0.89
2023-03-11T23:01:37.340Z,-0.94
2023-03-11T23:06:40.170Z,-0.97
2023-03-11T23:11:42.945Z,-0.98
2023-03-11T23:16:45.956Z,-1.03
2023-03-11T23:21:48.895Z,-1.09
2023-03-11T23:26:51.794Z,-1.14
2023-03-11T23:31:54.818Z,-1.17
2023-03-11T23:36:57.801Z,-1.12
2023-03-11T23:42:02.122Z,-1.17
2023-03-11T23:47:08.323Z,-1.23
2023-03-11T23:52:11.244Z,-1.25
2023-03-11T23:57:14.128Z,-1.30
